Versailles, Ohio
Current Conditions -  °F | °C
As of 11:55 AM on Sunday 28 Dec 2014 (Local Time) from KVES Reporting Station
Overcast Overcast  
Wind Chill: 27°   Ceiling: 1400
Heat Index: 34°   Visibility: 10mi
Dew Point: 32°   Wind: 8mph
Humidity: 93%   Direction: 320°NW
Pressure: 30.13"   Gusts: NA
Location:  40.22°N, 84.48°W
Report Text: KVES 281655Z AUTO 32007KT 10SM OVC014 01/00 A3013 RMK AO2
Loading
Personal Weather Stations






























Interactive Weather Map New forecast layout! Learn more

10-Day Weather Forecast

Advertisements
Track Severe Weather on mobile